sensor_id;sensor_type;location;lat;lon;timestamp;P1;durP1;ratioP1;P2;durP2;ratioP2
52734;SDS011;38631;47.572;10.704;2024-02-26T00:00:00;0.85;;;0.20;;
52734;SDS011;38631;47.572;10.704;2024-02-26T00:02:25;0.45;;;0.30;;
52734;SDS011;38631;47.572;10.704;2024-02-26T00:04:51;0.60;;;0.30;;
52734;SDS011;38631;47.572;10.704;2024-02-26T00:07:16;0.63;;;0.30;;
52734;SDS011;38631;47.572;10.704;2024-02-26T00:09:41;0.40;;;0.20;;
52734;SDS011;38631;47.572;10.704;2024-02-26T00:12:06;1.17;;;0.20;;
52734;SDS011;38631;47.572;10.704;2024-02-26T00:14:31;0.22;;;0.20;;
52734;SDS011;38631;47.572;10.704;2024-02-26T00:16:57;0.28;;;0.10;;
52734;SDS011;38631;47.572;10.704;2024-02-26T00:19:22;0.40;;;0.20;;
52734;SDS011;38631;47.572;10.704;2024-02-26T00:21:47;0.80;;;0.30;;
52734;SDS011;38631;47.572;10.704;2024-02-26T00:24:12;0.50;;;0.20;;
52734;SDS011;38631;47.572;10.704;2024-02-26T00:26:37;0.10;;;0.10;;
52734;SDS011;38631;47.572;10.704;2024-02-26T00:29:03;0.83;;;0.10;;
52734;SDS011;38631;47.572;10.704;2024-02-26T00:31:28;0.57;;;0.37;;
52734;SDS011;38631;47.572;10.704;2024-02-26T00:33:53;0.60;;;0.20;;
52734;SDS011;38631;47.572;10.704;2024-02-26T00:36:18;0.97;;;0.30;;
52734;SDS011;38631;47.572;10.704;2024-02-26T00:38:44;1.25;;;0.30;;
52734;SDS011;38631;47.572;10.704;2024-02-26T00:41:11;0.28;;;0.20;;
52734;SDS011;38631;47.572;10.704;2024-02-26T01:19:48;0.22;;;0.10;;
52734;SDS011;38631;47.572;10.704;2024-02-26T01:22:13;0.30;;;0.20;;
52734;SDS011;38631;47.572;10.704;2024-02-26T01:24:38;0.43;;;0.35;;
52734;SDS011;38631;47.572;10.704;2024-02-26T01:27:03;0.30;;;0.20;;
52734;SDS011;38631;47.572;10.704;2024-02-26T01:29:29;0.57;;;0.30;;
52734;SDS011;38631;47.572;10.704;2024-02-26T01:31:54;0.13;;;0.10;;
52734;SDS011;38631;47.572;10.704;2024-02-26T01:34:20;0.40;;;0.20;;
52734;SDS011;38631;47.572;10.704;2024-02-26T01:36:45;0.63;;;0.43;;
52734;SDS011;38631;47.572;10.704;2024-02-26T01:39:10;0.43;;;0.25;;
52734;SDS011;38631;47.572;10.704;2024-02-26T01:41:39;0.22;;;0.13;;
52734;SDS011;38631;47.572;10.704;2024-02-26T01:44:05;0.20;;;0.13;;
52734;SDS011;38631;47.572;10.704;2024-02-26T01:46:30;0.20;;;0.13;;
52734;SDS011;38631;47.572;10.704;2024-02-26T01:48:56;1.60;;;0.35;;
52734;SDS011;38631;47.572;10.704;2024-02-26T01:51:21;0.35;;;0.20;;
52734;SDS011;38631;47.572;10.704;2024-02-26T01:53:47;0.75;;;0.50;;
52734;SDS011;38631;47.572;10.704;2024-02-26T01:56:12;0.73;;;0.20;;
52734;SDS011;38631;47.572;10.704;2024-02-26T01:58:38;0.32;;;0.30;;
52734;SDS011;38631;47.572;10.704;2024-02-26T02:01:03;0.95;;;0.35;;
52734;SDS011;38631;47.572;10.704;2024-02-26T02:03:29;0.30;;;0.20;;
52734;SDS011;38631;47.572;10.704;2024-02-26T02:05:55;0.22;;;0.20;;
52734;SDS011;38631;47.572;10.704;2024-02-26T02:08:20;0.80;;;0.33;;
52734;SDS011;38631;47.572;10.704;2024-02-26T02:10:46;0.20;;;0.17;;
52734;SDS011;38631;47.572;10.704;2024-02-26T02:13:14;0.20;;;0.20;;
52734;SDS011;38631;47.572;10.704;2024-02-26T02:15:40;0.15;;;0.15;;
52734;SDS011;38631;47.572;10.704;2024-02-26T02:18:05;0.47;;;0.30;;
52734;SDS011;38631;47.572;10.704;2024-02-26T02:23:02;0.50;;;0.20;;
52734;SDS011;38631;47.572;10.704;2024-02-26T02:25:27;0.10;;;0.10;;
52734;SDS011;38631;47.572;10.704;2024-02-26T02:27:53;0.28;;;0.25;;
52734;SDS011;38631;47.572;10.704;2024-02-26T02:30:19;0.10;;;0.10;;
52734;SDS011;38631;47.572;10.704;2024-02-26T02:32:44;0.70;;;0.17;;
52734;SDS011;38631;47.572;10.704;2024-02-26T02:35:13;0.30;;;0.20;;
52734;SDS011;38631;47.572;10.704;2024-02-26T02:37:38;0.20;;;0.10;;
52734;SDS011;38631;47.572;10.704;2024-02-26T02:40:04;0.60;;;0.30;;
52734;SDS011;38631;47.572;10.704;2024-02-26T02:42:30;0.20;;;0.17;;
52734;SDS011;38631;47.572;10.704;2024-02-26T02:47:35;0.17;;;0.10;;
52734;SDS011;38631;47.572;10.704;2024-02-26T02:50:01;0.30;;;0.20;;
52734;SDS011;38631;47.572;10.704;2024-02-26T02:52:30;0.10;;;0.10;;
52734;SDS011;38631;47.572;10.704;2024-02-26T02:54:57;0.10;;;0.10;;
52734;SDS011;38631;47.572;10.704;2024-02-26T02:57:31;0.28;;;0.17;;
52734;SDS011;38631;47.572;10.704;2024-02-26T03:00:08;0.98;;;0.25;;
52734;SDS011;38631;47.572;10.704;2024-02-26T03:02:41;0.10;;;0.10;;
52734;SDS011;38631;47.572;10.704;2024-02-26T03:05:38;0.40;;;0.20;;
52734;SDS011;38631;47.572;10.704;2024-02-26T03:08:05;1.55;;;0.20;;
52734;SDS011;38631;47.572;10.704;2024-02-26T03:10:30;1.95;;;0.22;;
52734;SDS011;38631;47.572;10.704;2024-02-26T03:13:01;1.35;;;0.20;;
52734;SDS011;38631;47.572;10.704;2024-02-26T03:15:27;0.28;;;0.20;;
52734;SDS011;38631;47.572;10.704;2024-02-26T03:17:53;0.35;;;0.20;;
52734;SDS011;38631;47.572;10.704;2024-02-26T03:20:19;0.52;;;0.20;;
52734;SDS011;38631;47.572;10.704;2024-02-26T03:22:45;0.10;;;0.10;;
52734;SDS011;38631;47.572;10.704;2024-02-26T03:25:12;0.10;;;0.10;;
52734;SDS011;38631;47.572;10.704;2024-02-26T03:27:39;1.27;;;0.35;;
52734;SDS011;38631;47.572;10.704;2024-02-26T03:30:12;0.77;;;0.32;;
52734;SDS011;38631;47.572;10.704;2024-02-26T03:35:44;0.30;;;0.22;;
52734;SDS011;38631;47.572;10.704;2024-02-26T03:38:11;0.20;;;0.13;;
52734;SDS011;38631;47.572;10.704;2024-02-26T03:43:06;0.20;;;0.20;;
52734;SDS011;38631;47.572;10.704;2024-02-26T03:48:21;0.22;;;0.20;;
52734;SDS011;38631;47.572;10.704;2024-02-26T03:50:47;0.20;;;0.20;;
52734;SDS011;38631;47.572;10.704;2024-02-26T03:53:15;0.32;;;0.13;;
52734;SDS011;38631;47.572;10.704;2024-02-26T03:55:47;0.15;;;0.10;;
52734;SDS011;38631;47.572;10.704;2024-02-26T03:58:14;0.10;;;0.10;;
52734;SDS011;38631;47.572;10.704;2024-02-26T04:00:42;0.85;;;0.20;;
52734;SDS011;38631;47.572;10.704;2024-02-26T04:03:13;0.20;;;0.13;;
52734;SDS011;38631;47.572;10.704;2024-02-26T04:05:56;0.50;;;0.20;;
52734;SDS011;38631;47.572;10.704;2024-02-26T04:08:29;0.50;;;0.20;;
52734;SDS011;38631;47.572;10.704;2024-02-26T04:10:57;0.10;;;0.08;;
52734;SDS011;38631;47.572;10.704;2024-02-26T04:13:23;0.10;;;0.10;;
52734;SDS011;38631;47.572;10.704;2024-02-26T04:15:52;0.50;;;0.20;;
52734;SDS011;38631;47.572;10.704;2024-02-26T04:18:17;0.20;;;0.15;;
52734;SDS011;38631;47.572;10.704;2024-02-26T04:20:50;0.40;;;0.17;;
52734;SDS011;38631;47.572;10.704;2024-02-26T04:29:17;0.20;;;0.10;;
52734;SDS011;38631;47.572;10.704;2024-02-26T04:31:44;0.30;;;0.20;;
52734;SDS011;38631;47.572;10.704;2024-02-26T04:34:12;0.30;;;0.10;;
52734;SDS011;38631;47.572;10.704;2024-02-26T04:36:40;0.13;;;0.10;;
52734;SDS011;38631;47.572;10.704;2024-02-26T04:39:29;0.70;;;0.20;;
52734;SDS011;38631;47.572;10.704;2024-02-26T04:41:55;0.10;;;0.10;;
52734;SDS011;38631;47.572;10.704;2024-02-26T04:44:24;1.25;;;0.20;;
52734;SDS011;38631;47.572;10.704;2024-02-26T04:49:53;0.50;;;0.10;;
52734;SDS011;38631;47.572;10.704;2024-02-26T04:52:28;0.10;;;0.10;;
52734;SDS011;38631;47.572;10.704;2024-02-26T04:54:54;0.15;;;0.10;;
52734;SDS011;38631;47.572;10.704;2024-02-26T04:57:24;0.43;;;0.10;;
52734;SDS011;38631;47.572;10.704;2024-02-26T04:59:49;0.10;;;0.10;;
52734;SDS011;38631;47.572;10.704;2024-02-26T05:02:16;0.10;;;0.10;;
52734;SDS011;38631;47.572;10.704;2024-02-26T05:04:54;0.63;;;0.20;;
52734;SDS011;38631;47.572;10.704;2024-02-26T05:07:22;0.30;;;0.15;;
52734;SDS011;38631;47.572;10.704;2024-02-26T05:09:49;0.30;;;0.20;;
52734;SDS011;38631;47.572;10.704;2024-02-26T05:12:18;0.08;;;0.08;;
52734;SDS011;38631;47.572;10.704;2024-02-26T05:14:43;0.70;;;0.28;;
52734;SDS011;38631;47.572;10.704;2024-02-26T05:17:09;0.10;;;0.10;;
52734;SDS011;38631;47.572;10.704;2024-02-26T05:19:34;0.20;;;0.13;;
52734;SDS011;38631;47.572;10.704;2024-02-26T05:22:00;0.35;;;0.20;;
52734;SDS011;38631;47.572;10.704;2024-02-26T05:24:25;1.00;;;0.20;;
52734;SDS011;38631;47.572;10.704;2024-02-26T05:26:51;0.15;;;0.10;;
52734;SDS011;38631;47.572;10.704;2024-02-26T05:29:16;0.10;;;0.10;;
52734;SDS011;38631;47.572;10.704;2024-02-26T05:31:42;0.45;;;0.20;;
52734;SDS011;38631;47.572;10.704;2024-02-26T07:34:46;0.95;;;0.68;;
52734;SDS011;38631;47.572;10.704;2024-02-26T07:37:11;0.88;;;0.60;;
52734;SDS011;38631;47.572;10.704;2024-02-26T07:39:37;0.45;;;0.25;;
52734;SDS011;38631;47.572;10.704;2024-02-26T07:42:02;0.30;;;0.20;;
52734;SDS011;38631;47.572;10.704;2024-02-26T07:44:28;0.35;;;0.10;;
52734;SDS011;38631;47.572;10.704;2024-02-26T09:07:01;0.40;;;0.35;;
52734;SDS011;38631;47.572;10.704;2024-02-26T09:09:27;0.40;;;0.30;;
52734;SDS011;38631;47.572;10.704;2024-02-26T09:11:52;1.10;;;0.20;;
52734;SDS011;38631;47.572;10.704;2024-02-26T09:14:20;0.75;;;0.30;;
52734;SDS011;38631;47.572;10.704;2024-02-26T09:16:45;0.10;;;0.10;;
52734;SDS011;38631;47.572;10.704;2024-02-26T09:19:10;0.75;;;0.22;;
52734;SDS011;38631;47.572;10.704;2024-02-26T09:21:36;0.50;;;0.20;;
52734;SDS011;38631;47.572;10.704;2024-02-26T09:24:01;0.90;;;0.38;;
52734;SDS011;38631;47.572;10.704;2024-02-26T09:26:27;0.30;;;0.20;;
52734;SDS011;38631;47.572;10.704;2024-02-26T09:28:52;0.25;;;0.20;;
52734;SDS011;38631;47.572;10.704;2024-02-26T09:31:18;0.43;;;0.20;;
52734;SDS011;38631;47.572;10.704;2024-02-26T09:33:43;0.25;;;0.22;;
52734;SDS011;38631;47.572;10.704;2024-02-26T09:36:08;2.45;;;0.20;;
52734;SDS011;38631;47.572;10.704;2024-02-26T09:38:36;0.40;;;0.20;;
52734;SDS011;38631;47.572;10.704;2024-02-26T09:41:03;1.35;;;0.22;;
52734;SDS011;38631;47.572;10.704;2024-02-26T09:43:30;0.32;;;0.15;;
52734;SDS011;38631;47.572;10.704;2024-02-26T09:45:58;0.32;;;0.20;;
52734;SDS011;38631;47.572;10.704;2024-02-26T09:48:23;0.50;;;0.30;;
52734;SDS011;38631;47.572;10.704;2024-02-26T09:50:49;0.40;;;0.20;;
52734;SDS011;38631;47.572;10.704;2024-02-26T09:53:14;1.67;;;0.30;;
52734;SDS011;38631;47.572;10.704;2024-02-26T09:55:40;1.55;;;0.10;;
52734;SDS011;38631;47.572;10.704;2024-02-26T09:58:05;0.25;;;0.13;;
52734;SDS011;38631;47.572;10.704;2024-02-26T10:00:31;0.77;;;0.30;;
52734;SDS011;38631;47.572;10.704;2024-02-26T10:03:02;0.30;;;0.10;;
52734;SDS011;38631;47.572;10.704;2024-02-26T10:05:28;0.10;;;0.10;;
52734;SDS011;38631;47.572;10.704;2024-02-26T10:07:54;1.35;;;0.20;;
52734;SDS011;38631;47.572;10.704;2024-02-26T10:10:22;2.65;;;0.32;;
52734;SDS011;38631;47.572;10.704;2024-02-26T10:12:48;0.50;;;0.20;;
52734;SDS011;38631;47.572;10.704;2024-02-26T10:15:13;0.10;;;0.10;;
52734;SDS011;38631;47.572;10.704;2024-02-26T10:17:39;0.22;;;0.10;;
52734;SDS011;38631;47.572;10.704;2024-02-26T10:20:14;0.75;;;0.30;;
52734;SDS011;38631;47.572;10.704;2024-02-26T10:22:41;0.47;;;0.40;;
52734;SDS011;38631;47.572;10.704;2024-02-26T10:25:06;0.22;;;0.20;;
52734;SDS011;38631;47.572;10.704;2024-02-26T10:27:33;0.65;;;0.10;;
52734;SDS011;38631;47.572;10.704;2024-02-26T10:29:58;0.50;;;0.20;;
52734;SDS011;38631;47.572;10.704;2024-02-26T10:32:27;0.30;;;0.20;;
52734;SDS011;38631;47.572;10.704;2024-02-26T10:34:56;0.20;;;0.10;;
52734;SDS011;38631;47.572;10.704;2024-02-26T10:37:22;0.50;;;0.10;;
52734;SDS011;38631;47.572;10.704;2024-02-26T10:39:47;0.65;;;0.20;;
52734;SDS011;38631;47.572;10.704;2024-02-26T10:42:13;0.28;;;0.20;;
52734;SDS011;38631;47.572;10.704;2024-02-26T10:44:40;0.47;;;0.10;;
52734;SDS011;38631;47.572;10.704;2024-02-26T10:47:06;0.25;;;0.20;;
52734;SDS011;38631;47.572;10.704;2024-02-26T10:49:33;0.40;;;0.20;;
52734;SDS011;38631;47.572;10.704;2024-02-26T10:51:59;0.15;;;0.10;;
52734;SDS011;38631;47.572;10.704;2024-02-26T10:54:26;0.38;;;0.10;;
52734;SDS011;38631;47.572;10.704;2024-02-26T10:56:53;0.10;;;0.10;;
52734;SDS011;38631;47.572;10.704;2024-02-26T10:59:18;0.55;;;0.22;;
52734;SDS011;38631;47.572;10.704;2024-02-26T11:01:46;0.10;;;0.10;;
52734;SDS011;38631;47.572;10.704;2024-02-26T11:04:12;0.10;;;0.10;;
52734;SDS011;38631;47.572;10.704;2024-02-26T11:06:38;0.10;;;0.10;;
52734;SDS011;38631;47.572;10.704;2024-02-26T11:09:03;0.22;;;0.10;;
52734;SDS011;38631;47.572;10.704;2024-02-26T11:11:31;0.45;;;0.20;;
52734;SDS011;38631;47.572;10.704;2024-02-26T11:13:57;1.90;;;0.75;;
52734;SDS011;38631;47.572;10.704;2024-02-26T11:16:23;0.40;;;0.20;;
52734;SDS011;38631;47.572;10.704;2024-02-26T11:18:48;0.25;;;0.17;;
52734;SDS011;38631;47.572;10.704;2024-02-26T11:21:17;0.88;;;0.55;;
52734;SDS011;38631;47.572;10.704;2024-02-26T11:26:09;0.35;;;0.20;;
52734;SDS011;38631;47.572;10.704;2024-02-26T11:28:35;0.10;;;0.10;;
52734;SDS011;38631;47.572;10.704;2024-02-26T11:31:02;1.52;;;0.10;;
52734;SDS011;38631;47.572;10.704;2024-02-26T11:33:29;0.10;;;0.10;;
52734;SDS011;38631;47.572;10.704;2024-02-26T11:35:55;0.40;;;0.08;;
52734;SDS011;38631;47.572;10.704;2024-02-26T11:38:21;0.00;;;0.00;;
52734;SDS011;38631;47.572;10.704;2024-02-26T11:40:49;0.20;;;0.10;;
52734;SDS011;38631;47.572;10.704;2024-02-26T11:43:15;0.20;;;0.10;;
52734;SDS011;38631;47.572;10.704;2024-02-26T11:48:16;0.98;;;0.20;;
52734;SDS011;38631;47.572;10.704;2024-02-26T11:50:50;0.65;;;0.40;;
52734;SDS011;38631;47.572;10.704;2024-02-26T11:53:19;0.80;;;0.50;;
52734;SDS011;38631;47.572;10.704;2024-02-26T11:55:45;0.27;;;0.10;;
52734;SDS011;38631;47.572;10.704;2024-02-26T11:58:10;0.20;;;0.17;;
52734;SDS011;38631;47.572;10.704;2024-02-26T12:00:36;0.10;;;0.10;;
52734;SDS011;38631;47.572;10.704;2024-02-26T12:03:01;0.10;;;0.10;;
52734;SDS011;38631;47.572;10.704;2024-02-26T12:05:31;1.38;;;1.00;;
52734;SDS011;38631;47.572;10.704;2024-02-26T12:08:00;0.40;;;0.20;;
52734;SDS011;38631;47.572;10.704;2024-02-26T12:10:26;0.40;;;0.20;;
52734;SDS011;38631;47.572;10.704;2024-02-26T12:12:59;0.57;;;0.20;;
52734;SDS011;38631;47.572;10.704;2024-02-26T12:15:38;0.15;;;0.10;;
52734;SDS011;38631;47.572;10.704;2024-02-26T12:18:05;0.28;;;0.10;;
52734;SDS011;38631;47.572;10.704;2024-02-26T12:20:33;0.20;;;0.10;;
52734;SDS011;38631;47.572;10.704;2024-02-26T12:23:01;0.00;;;0.00;;
52734;SDS011;38631;47.572;10.704;2024-02-26T12:25:30;0.10;;;0.10;;
52734;SDS011;38631;47.572;10.704;2024-02-26T12:27:59;0.20;;;0.10;;
52734;SDS011;38631;47.572;10.704;2024-02-26T12:30:24;0.10;;;0.10;;
52734;SDS011;38631;47.572;10.704;2024-02-26T12:32:55;0.98;;;0.20;;
52734;SDS011;38631;47.572;10.704;2024-02-26T12:35:40;1.23;;;0.20;;
52734;SDS011;38631;47.572;10.704;2024-02-26T12:38:06;0.32;;;0.20;;
52734;SDS011;38631;47.572;10.704;2024-02-26T12:40:32;0.32;;;0.20;;
52734;SDS011;38631;47.572;10.704;2024-02-26T12:43:00;0.22;;;0.10;;
52734;SDS011;38631;47.572;10.704;2024-02-26T12:45:38;0.32;;;0.30;;
52734;SDS011;38631;47.572;10.704;2024-02-26T12:48:14;0.20;;;0.17;;
52734;SDS011;38631;47.572;10.704;2024-02-26T12:50:45;0.65;;;0.10;;
52734;SDS011;38631;47.572;10.704;2024-02-26T12:53:13;0.30;;;0.20;;
52734;SDS011;38631;47.572;10.704;2024-02-26T12:55:40;2.17;;;0.90;;
52734;SDS011;38631;47.572;10.704;2024-02-26T12:58:11;6.57;;;2.15;;
52734;SDS011;38631;47.572;10.704;2024-02-26T13:00:37;1.20;;;0.50;;
52734;SDS011;38631;47.572;10.704;2024-02-26T13:03:03;2.05;;;0.88;;
52734;SDS011;38631;47.572;10.704;2024-02-26T13:05:29;1.48;;;0.68;;
52734;SDS011;38631;47.572;10.704;2024-02-26T13:08:00;1.10;;;0.45;;
52734;SDS011;38631;47.572;10.704;2024-02-26T13:10:26;1.02;;;0.50;;
52734;SDS011;38631;47.572;10.704;2024-02-26T13:12:52;0.80;;;0.30;;
52734;SDS011;38631;47.572;10.704;2024-02-26T13:15:18;3.70;;;1.35;;
52734;SDS011;38631;47.572;10.704;2024-02-26T13:17:44;2.30;;;1.00;;
52734;SDS011;38631;47.572;10.704;2024-02-26T13:20:10;0.98;;;0.57;;
52734;SDS011;38631;47.572;10.704;2024-02-26T13:22:36;2.25;;;0.93;;
52734;SDS011;38631;47.572;10.704;2024-02-26T13:25:02;3.22;;;0.60;;
52734;SDS011;38631;47.572;10.704;2024-02-26T13:27:29;0.10;;;0.10;;
52734;SDS011;38631;47.572;10.704;2024-02-26T13:30:08;1.65;;;0.20;;
52734;SDS011;38631;47.572;10.704;2024-02-26T13:32:35;0.32;;;0.30;;
52734;SDS011;38631;47.572;10.704;2024-02-26T13:35:05;1.77;;;0.50;;
52734;SDS011;38631;47.572;10.704;2024-02-26T13:39:58;1.93;;;0.63;;
52734;SDS011;38631;47.572;10.704;2024-02-26T13:42:23;0.82;;;0.47;;
52734;SDS011;38631;47.572;10.704;2024-02-26T13:44:51;2.22;;;0.30;;
52734;SDS011;38631;47.572;10.704;2024-02-26T13:47:21;0.47;;;0.28;;
52734;SDS011;38631;47.572;10.704;2024-02-26T13:49:47;1.40;;;0.60;;
52734;SDS011;38631;47.572;10.704;2024-02-26T13:52:12;0.35;;;0.28;;
52734;SDS011;38631;47.572;10.704;2024-02-26T13:54:38;0.50;;;0.30;;
52734;SDS011;38631;47.572;10.704;2024-02-26T13:57:05;0.85;;;0.40;;
52734;SDS011;38631;47.572;10.704;2024-02-26T13:59:32;3.08;;;0.73;;
52734;SDS011;38631;47.572;10.704;2024-02-26T14:01:58;1.00;;;0.50;;
52734;SDS011;38631;47.572;10.704;2024-02-26T14:04:23;1.13;;;0.50;;
52734;SDS011;38631;47.572;10.704;2024-02-26T14:06:49;1.42;;;0.60;;
52734;SDS011;38631;47.572;10.704;2024-02-26T14:09:15;2.08;;;0.82;;
52734;SDS011;38631;47.572;10.704;2024-02-26T14:11:47;2.03;;;0.80;;
52734;SDS011;38631;47.572;10.704;2024-02-26T14:14:12;2.08;;;1.00;;
52734;SDS011;38631;47.572;10.704;2024-02-26T14:16:41;1.80;;;0.93;;
52734;SDS011;38631;47.572;10.704;2024-02-26T14:19:07;2.15;;;0.50;;
52734;SDS011;38631;47.572;10.704;2024-02-26T14:21:33;0.77;;;0.55;;
52734;SDS011;38631;47.572;10.704;2024-02-26T14:24:00;2.20;;;0.70;;
52734;SDS011;38631;47.572;10.704;2024-02-26T14:26:26;0.80;;;0.35;;
52734;SDS011;38631;47.572;10.704;2024-02-26T14:28:54;1.05;;;0.52;;
52734;SDS011;38631;47.572;10.704;2024-02-26T14:31:19;1.35;;;0.32;;
52734;SDS011;38631;47.572;10.704;2024-02-26T14:33:46;0.60;;;0.40;;
52734;SDS011;38631;47.572;10.704;2024-02-26T14:36:15;0.35;;;0.22;;
52734;SDS011;38631;47.572;10.704;2024-02-26T14:38:41;1.92;;;1.05;;
52734;SDS011;38631;47.572;10.704;2024-02-26T14:41:07;2.15;;;1.33;;
52734;SDS011;38631;47.572;10.704;2024-02-26T14:43:33;1.70;;;1.17;;
52734;SDS011;38631;47.572;10.704;2024-02-26T14:46:01;2.30;;;1.35;;
52734;SDS011;38631;47.572;10.704;2024-02-26T14:48:28;2.40;;;1.02;;
52734;SDS011;38631;47.572;10.704;2024-02-26T14:50:57;0.70;;;0.50;;
52734;SDS011;38631;47.572;10.704;2024-02-26T14:53:22;1.55;;;0.68;;
52734;SDS011;38631;47.572;10.704;2024-02-26T14:55:48;1.27;;;0.98;;
52734;SDS011;38631;47.572;10.704;2024-02-26T14:58:13;2.25;;;1.70;;
52734;SDS011;38631;47.572;10.704;2024-02-26T15:00:39;0.85;;;0.50;;
52734;SDS011;38631;47.572;10.704;2024-02-26T15:03:05;0.50;;;0.30;;
52734;SDS011;38631;47.572;10.704;2024-02-26T15:05:33;0.63;;;0.40;;
52734;SDS011;38631;47.572;10.704;2024-02-26T15:07:59;1.67;;;0.50;;
52734;SDS011;38631;47.572;10.704;2024-02-26T15:10:25;1.92;;;0.77;;
52734;SDS011;38631;47.572;10.704;2024-02-26T15:12:50;2.40;;;1.00;;
52734;SDS011;38631;47.572;10.704;2024-02-26T15:15:21;2.22;;;1.45;;
52734;SDS011;38631;47.572;10.704;2024-02-26T15:17:47;1.98;;;1.25;;
52734;SDS011;38631;47.572;10.704;2024-02-26T15:20:15;7.32;;;2.90;;
52734;SDS011;38631;47.572;10.704;2024-02-26T15:22:41;9.25;;;2.75;;
52734;SDS011;38631;47.572;10.704;2024-02-26T15:25:08;7.55;;;2.70;;
52734;SDS011;38631;47.572;10.704;2024-02-26T15:27:35;3.83;;;2.03;;
52734;SDS011;38631;47.572;10.704;2024-02-26T15:30:01;2.78;;;1.27;;
52734;SDS011;38631;47.572;10.704;2024-02-26T15:32:26;2.13;;;0.98;;
52734;SDS011;38631;47.572;10.704;2024-02-26T15:34:53;3.05;;;0.77;;
52734;SDS011;38631;47.572;10.704;2024-02-26T15:37:19;3.00;;;0.68;;
52734;SDS011;38631;47.572;10.704;2024-02-26T15:39:44;1.60;;;0.50;;
52734;SDS011;38631;47.572;10.704;2024-02-26T15:42:10;0.95;;;0.70;;
52734;SDS011;38631;47.572;10.704;2024-02-26T15:44:36;0.77;;;0.43;;
52734;SDS011;38631;47.572;10.704;2024-02-26T15:47:03;2.22;;;1.30;;
52734;SDS011;38631;47.572;10.704;2024-02-26T15:49:32;3.38;;;1.77;;
52734;SDS011;38631;47.572;10.704;2024-02-26T15:51:57;1.70;;;1.02;;
52734;SDS011;38631;47.572;10.704;2024-02-26T15:54:23;0.88;;;0.63;;
52734;SDS011;38631;47.572;10.704;2024-02-26T15:56:51;1.63;;;1.17;;
52734;SDS011;38631;47.572;10.704;2024-02-26T15:59:22;2.50;;;1.40;;
52734;SDS011;38631;47.572;10.704;2024-02-26T16:01:50;5.72;;;1.15;;
52734;SDS011;38631;47.572;10.704;2024-02-26T16:04:15;1.25;;;0.50;;
52734;SDS011;38631;47.572;10.704;2024-02-26T16:06:42;1.23;;;0.77;;
52734;SDS011;38631;47.572;10.704;2024-02-26T16:09:08;0.28;;;0.20;;
52734;SDS011;38631;47.572;10.704;2024-02-26T16:11:33;1.02;;;0.50;;
52734;SDS011;38631;47.572;10.704;2024-02-26T16:14:05;0.93;;;0.50;;
52734;SDS011;38631;47.572;10.704;2024-02-26T16:16:33;0.93;;;0.52;;
52734;SDS011;38631;47.572;10.704;2024-02-26T16:19:05;1.23;;;0.40;;
52734;SDS011;38631;47.572;10.704;2024-02-26T16:21:30;0.50;;;0.40;;
52734;SDS011;38631;47.572;10.704;2024-02-26T16:26:30;10.23;;;5.97;;
52734;SDS011;38631;47.572;10.704;2024-02-26T16:28:55;4.78;;;2.70;;
52734;SDS011;38631;47.572;10.704;2024-02-26T16:31:21;3.70;;;1.80;;
52734;SDS011;38631;47.572;10.704;2024-02-26T16:33:46;1.30;;;0.88;;
52734;SDS011;38631;47.572;10.704;2024-02-26T16:36:11;1.33;;;0.68;;
52734;SDS011;38631;47.572;10.704;2024-02-26T16:38:37;3.03;;;0.70;;
52734;SDS011;38631;47.572;10.704;2024-02-26T16:41:02;1.13;;;0.63;;
52734;SDS011;38631;47.572;10.704;2024-02-26T16:43:28;0.95;;;0.55;;
52734;SDS011;38631;47.572;10.704;2024-02-26T16:45:53;2.00;;;1.30;;
52734;SDS011;38631;47.572;10.704;2024-02-26T16:48:21;3.25;;;1.42;;
52734;SDS011;38631;47.572;10.704;2024-02-26T16:50:47;1.65;;;0.88;;
52734;SDS011;38631;47.572;10.704;2024-02-26T16:53:12;8.88;;;5.03;;
52734;SDS011;38631;47.572;10.704;2024-02-26T16:55:37;4.97;;;2.60;;
52734;SDS011;38631;47.572;10.704;2024-02-26T16:58:03;2.67;;;1.73;;
52734;SDS011;38631;47.572;10.704;2024-02-26T17:00:34;2.92;;;1.02;;
52734;SDS011;38631;47.572;10.704;2024-02-26T17:03:01;2.67;;;1.00;;
52734;SDS011;38631;47.572;10.704;2024-02-26T17:11:34;7.53;;;4.80;;
52734;SDS011;38631;47.572;10.704;2024-02-26T17:14:01;6.38;;;3.92;;
52734;SDS011;38631;47.572;10.704;2024-02-26T17:16:26;9.30;;;4.78;;
52734;SDS011;38631;47.572;10.704;2024-02-26T17:18:51;7.97;;;4.27;;
52734;SDS011;38631;47.572;10.704;2024-02-26T17:21:17;5.75;;;2.60;;
52734;SDS011;38631;47.572;10.704;2024-02-26T17:23:43;4.53;;;2.13;;
52734;SDS011;38631;47.572;10.704;2024-02-26T17:26:08;4.43;;;2.38;;
52734;SDS011;38631;47.572;10.704;2024-02-26T17:28:36;4.15;;;2.28;;
52734;SDS011;38631;47.572;10.704;2024-02-26T17:31:05;3.70;;;2.43;;
52734;SDS011;38631;47.572;10.704;2024-02-26T17:33:30;3.90;;;2.30;;
52734;SDS011;38631;47.572;10.704;2024-02-26T17:35:55;2.72;;;1.77;;
52734;SDS011;38631;47.572;10.704;2024-02-26T17:38:21;3.70;;;2.20;;
52734;SDS011;38631;47.572;10.704;2024-02-26T17:40:46;4.70;;;1.92;;
52734;SDS011;38631;47.572;10.704;2024-02-26T17:43:16;2.92;;;2.08;;
52734;SDS011;38631;47.572;10.704;2024-02-26T17:45:41;4.10;;;2.10;;
52734;SDS011;38631;47.572;10.704;2024-02-26T17:48:07;4.50;;;2.30;;
52734;SDS011;38631;47.572;10.704;2024-02-26T17:50:32;3.60;;;2.50;;
52734;SDS011;38631;47.572;10.704;2024-02-26T17:52:58;3.40;;;2.00;;
52734;SDS011;38631;47.572;10.704;2024-02-26T17:55:23;3.47;;;2.30;;
52734;SDS011;38631;47.572;10.704;2024-02-26T17:57:49;7.68;;;3.80;;
52734;SDS011;38631;47.572;10.704;2024-02-26T18:00:14;37.08;;;16.58;;
52734;SDS011;38631;47.572;10.704;2024-02-26T18:02:39;31.50;;;15.40;;
52734;SDS011;38631;47.572;10.704;2024-02-26T18:05:05;27.38;;;13.45;;
52734;SDS011;38631;47.572;10.704;2024-02-26T18:07:30;20.88;;;11.30;;
52734;SDS011;38631;47.572;10.704;2024-02-26T18:09:55;10.80;;;5.73;;
52734;SDS011;38631;47.572;10.704;2024-02-26T18:12:24;8.18;;;4.35;;
52734;SDS011;38631;47.572;10.704;2024-02-26T18:14:50;10.45;;;4.38;;
52734;SDS011;38631;47.572;10.704;2024-02-26T18:17:15;9.93;;;5.20;;
52734;SDS011;38631;47.572;10.704;2024-02-26T18:19:42;6.88;;;4.13;;
52734;SDS011;38631;47.572;10.704;2024-02-26T18:22:08;6.90;;;4.38;;
52734;SDS011;38631;47.572;10.704;2024-02-26T18:24:36;6.15;;;3.35;;
52734;SDS011;38631;47.572;10.704;2024-02-26T18:27:05;5.85;;;2.83;;
52734;SDS011;38631;47.572;10.704;2024-02-26T18:29:30;4.32;;;2.97;;
52734;SDS011;38631;47.572;10.704;2024-02-26T18:34:27;7.75;;;5.05;;
52734;SDS011;38631;47.572;10.704;2024-02-26T21:19:30;16.58;;;10.20;;
52734;SDS011;38631;47.572;10.704;2024-02-26T21:21:55;14.48;;;8.85;;
52734;SDS011;38631;47.572;10.704;2024-02-26T21:24:20;13.25;;;8.20;;
52734;SDS011;38631;47.572;10.704;2024-02-26T21:26:46;9.23;;;6.07;;
52734;SDS011;38631;47.572;10.704;2024-02-26T21:29:11;8.30;;;5.45;;
52734;SDS011;38631;47.572;10.704;2024-02-26T21:31:36;8.43;;;4.78;;
52734;SDS011;38631;47.572;10.704;2024-02-26T21:34:02;7.25;;;3.65;;
52734;SDS011;38631;47.572;10.704;2024-02-26T21:36:43;7.20;;;3.42;;
52734;SDS011;38631;47.572;10.704;2024-02-26T21:39:47;7.10;;;4.03;;
52734;SDS011;38631;47.572;10.704;2024-02-26T21:42:12;8.07;;;4.03;;
52734;SDS011;38631;47.572;10.704;2024-02-26T21:44:37;8.27;;;3.65;;
52734;SDS011;38631;47.572;10.704;2024-02-26T21:47:02;8.07;;;4.00;;
52734;SDS011;38631;47.572;10.704;2024-02-26T21:49:28;6.20;;;3.00;;
52734;SDS011;38631;47.572;10.704;2024-02-26T21:51:53;7.40;;;3.05;;